Time;durP1;ratioP1;P1;durP2;ratioP2;P2;SDS_P1;SDS_P2;PMS_P1;PMS_P2;Temp;Humidity;BMP_temperature;BMP_pressure;BME280_temperature;BME280_humidity;BME280_pressure;Samples;Min_cycle;Max_cycle;Signal;HPM_P1;HPM_P2
2022/08/20 00:02:09;;;;;;;11.38;3.10;;;19.20;99.90;;;;;;4951850;29;20062;-81
2022/08/20 00:04:55;;;;;;;9.70;2.50;;;19.10;99.90;;;;;;4952497;29;20488;-80
2022/08/20 00:07:41;;;;;;;8.57;3.20;;;19.10;99.90;;;;;;4952844;29;20075;-80
2022/08/20 00:10:29;;;;;;;14.15;3.70;;;19.10;99.90;;;;;;4952462;29;20114;-80
2022/08/20 00:13:24;;;;;;;7.75;2.72;;;19.10;99.90;;;;;;4952151;29;20491;-80
2022/08/20 00:16:11;;;;;;;7.53;2.38;;;19.10;99.90;;;;;;4938332;29;20051;-79
2022/08/20 00:18:59;;;;;;;7.15;2.17;;;19.00;99.90;;;;;;4952704;29;20444;-80
2022/08/20 00:21:45;;;;;;;9.70;3.13;;;19.00;99.90;;;;;;4951910;29;20054;-80
2022/08/20 00:24:32;;;;;;;8.68;2.45;;;19.00;99.90;;;;;;4951354;28;20082;-81
2022/08/20 00:27:18;;;;;;;7.05;2.17;;;18.90;99.90;;;;;;4952475;29;20047;-81
2022/08/20 00:30:08;;;;;;;12.77;2.45;;;18.90;99.90;;;;;;4951197;29;20051;-81
2022/08/20 00:33:01;;;;;;;12.40;2.85;;;18.90;99.90;;;;;;4951696;29;20534;-81
2022/08/20 00:35:55;;;;;;;8.60;2.60;;;18.80;99.90;;;;;;4952197;29;20444;-82
2022/08/20 00:38:42;;;;;;;9.75;2.38;;;18.80;99.90;;;;;;4950987;29;20051;-79
2022/08/20 00:41:29;;;;;;;9.55;2.33;;;18.70;99.90;;;;;;4951945;28;20059;-81
2022/08/20 00:44:21;;;;;;;11.52;2.83;;;18.70;99.90;;;;;;4953011;29;20059;-80
2022/08/20 00:47:08;;;;;;;7.80;2.53;;;18.70;99.90;;;;;;4952248;29;20051;-80
2022/08/20 00:49:54;;;;;;;12.98;2.47;;;18.70;99.90;;;;;;4951485;29;20779;-80
2022/08/20 00:52:43;;;;;;;12.95;2.40;;;18.60;99.90;;;;;;4952021;29;20907;-81
2022/08/20 00:55:31;;;;;;;7.75;2.20;;;18.60;99.90;;;;;;4952482;29;20051;-80
2022/08/20 00:58:18;;;;;;;12.02;2.40;;;18.60;99.90;;;;;;4952242;29;20051;-81
2022/08/20 01:01:05;;;;;;;12.68;2.42;;;18.60;99.90;;;;;;4950921;29;20499;-80
2022/08/20 01:03:54;;;;;;;11.98;2.15;;;18.60;99.90;;;;;;4951023;29;20389;-82
2022/08/20 01:06:41;;;;;;;14.20;2.75;;;18.60;99.90;;;;;;4952232;29;20087;-80
2022/08/20 01:09:27;;;;;;;14.55;2.25;;;18.60;99.90;;;;;;4951232;29;20110;-81
2022/08/20 01:12:15;;;;;;;13.27;2.78;;;18.50;99.90;;;;;;4952177;29;20059;-80
2022/08/20 01:15:03;;;;;;;8.88;2.83;;;18.60;99.90;;;;;;4952396;29;20526;-80
2022/08/20 01:17:53;;;;;;;12.10;2.20;;;18.50;99.90;;;;;;4952905;29;20559;-78
2022/08/20 01:20:44;;;;;;;9.85;2.45;;;18.50;99.90;;;;;;4950348;29;20055;-81
2022/08/20 01:23:52;;;;;;;10.88;2.20;;;18.40;99.90;;;;;;4951966;29;20063;-80
2022/08/20 01:26:42;;;;;;;11.57;2.28;;;18.40;99.90;;;;;;4952023;29;20050;-81
2022/08/20 01:29:38;;;;;;;12.93;2.20;;;18.30;99.90;;;;;;4950657;29;20051;-79
2022/08/20 01:32:24;;;;;;;10.95;2.42;;;18.20;99.90;;;;;;4952301;29;20066;-79
2022/08/20 01:35:10;;;;;;;12.23;2.70;;;18.20;99.90;;;;;;4953640;28;20058;-82
2022/08/20 01:37:56;;;;;;;12.52;2.22;;;18.20;99.90;;;;;;4953161;29;20055;-79
2022/08/20 01:41:09;;;;;;;15.18;3.03;;;18.20;99.90;;;;;;4954998;28;20149;-80
2022/08/20 01:43:56;;;;;;;15.13;2.35;;;18.20;99.90;;;;;;4953660;29;20114;-82
2022/08/20 01:46:45;;;;;;;12.30;2.20;;;18.20;99.90;;;;;;4955652;29;20055;-81
2022/08/20 01:49:34;;;;;;;7.53;1.80;;;18.20;99.90;;;;;;4954633;29;20052;-81
2022/08/20 01:52:59;;;;;;;9.05;1.90;;;18.20;99.90;;;;;;4953051;29;20051;-80
2022/08/20 01:55:45;;;;;;;13.38;2.13;;;18.20;99.90;;;;;;4955579;28;20047;-81
2022/08/20 01:58:33;;;;;;;11.95;2.28;;;18.20;99.90;;;;;;4954739;29;20062;-81
2022/08/20 02:01:22;;;;;;;11.23;2.10;;;18.20;99.90;;;;;;4957350;28;20047;-80
2022/08/20 02:04:09;;;;;;;15.02;3.20;;;18.20;99.90;;;;;;4955752;29;20075;-80
2022/08/20 02:06:58;;;;;;;15.93;2.00;;;18.20;99.90;;;;;;4955778;29;20048;-81
2022/08/20 02:09:46;;;;;;;8.02;2.30;;;18.20;99.90;;;;;;4954758;29;20555;-80
2022/08/20 02:12:32;;;;;;;7.75;2.03;;;18.10;99.90;;;;;;4955200;29;20047;-80
2022/08/20 02:15:18;;;;;;;11.93;2.13;;;18.10;99.90;;;;;;4955266;29;20047;-81
2022/08/20 02:18:07;;;;;;;9.38;2.05;;;18.10;99.90;;;;;;4955218;29;20055;-81
2022/08/20 02:20:53;;;;;;;13.30;1.90;;;18.10;99.90;;;;;;4957535;29;20106;-81
2022/08/20 02:23:40;;;;;;;9.77;1.77;;;18.00;99.90;;;;;;4956244;29;20554;-81
2022/08/20 02:26:28;;;;;;;11.82;2.38;;;18.00;99.90;;;;;;4957857;28;20055;-80
2022/08/20 02:29:15;;;;;;;9.93;2.40;;;17.90;99.90;;;;;;4956028;29;20191;-80
2022/08/20 02:32:01;;;;;;;9.75;2.33;;;17.90;99.90;;;;;;4955609;29;20127;-82
2022/08/20 02:34:48;;;;;;;10.10;1.92;;;17.90;99.90;;;;;;4955888;28;20047;-81
2022/08/20 02:37:36;;;;;;;13.77;2.08;;;17.80;99.90;;;;;;4954789;29;20092;-82
2022/08/20 02:40:27;;;;;;;10.05;2.25;;;17.80;99.90;;;;;;4952971;29;20067;-81
2022/08/20 02:43:14;;;;;;;8.68;1.65;;;17.80;99.90;;;;;;4954727;29;20051;-81
2022/08/20 02:46:01;;;;;;;9.65;1.75;;;17.80;99.90;;;;;;4952974;28;20047;-80
2022/08/20 02:48:47;;;;;;;12.63;1.63;;;17.70;99.90;;;;;;4953681;29;20419;-81
2022/08/20 02:51:33;;;;;;;11.20;2.22;;;17.70;99.90;;;;;;4953001;29;20081;-79
2022/08/20 02:54:19;;;;;;;9.93;1.63;;;17.80;99.90;;;;;;4954645;29;20058;-81
2022/08/20 02:57:14;;;;;;;9.77;1.42;;;17.70;99.90;;;;;;4954432;29;20068;-82
2022/08/20 03:00:03;;;;;;;8.07;1.50;;;17.70;99.90;;;;;;4954487;29;20055;-81
2022/08/20 03:02:50;;;;;;;10.52;1.90;;;17.70;99.90;;;;;;4953657;29;20067;-81
2022/08/20 03:05:38;;;;;;;9.45;2.13;;;17.70;99.90;;;;;;4953804;29;20051;-81
2022/08/20 03:08:26;;;;;;;10.30;1.65;;;17.70;99.90;;;;;;4954037;29;20050;-80
2022/08/20 03:11:12;;;;;;;7.75;1.58;;;17.70;99.90;;;;;;4953383;29;20051;-80
2022/08/20 03:13:58;;;;;;;8.45;1.42;;;17.70;99.90;;;;;;4953041;29;20097;-81
2022/08/20 03:16:44;;;;;;;5.25;1.42;;;17.70;99.90;;;;;;4954196;29;20138;-80
2022/08/20 03:19:30;;;;;;;7.35;1.35;;;17.80;99.90;;;;;;4953570;29;20054;-80
2022/08/20 03:22:16;;;;;;;14.15;1.90;;;17.80;99.90;;;;;;4953506;29;20074;-80
2022/08/20 03:25:03;;;;;;;9.05;1.63;;;17.80;99.90;;;;;;4954653;28;20054;-81
2022/08/20 03:27:50;;;;;;;11.48;1.90;;;17.90;99.90;;;;;;4954050;29;20558;-81
2022/08/20 03:30:37;;;;;;;5.55;1.15;;;17.90;99.90;;;;;;4953622;29;20047;-80
2022/08/20 03:33:23;;;;;;;8.13;1.75;;;17.80;99.90;;;;;;4953608;29;20193;-81
2022/08/20 03:36:09;;;;;;;7.53;1.70;;;17.90;99.90;;;;;;4952992;29;20093;-81
2022/08/20 03:39:02;;;;;;;8.93;1.60;;;17.90;99.90;;;;;;4951781;29;20527;-81
2022/08/20 03:41:48;;;;;;;12.80;1.67;;;17.90;99.90;;;;;;4952653;28;20047;-81
2022/08/20 03:44:35;;;;;;;9.68;1.88;;;17.90;99.90;;;;;;4953452;29;20055;-81
2022/08/20 03:47:21;;;;;;;10.38;1.50;;;17.90;99.90;;;;;;4954178;28;20055;-81
2022/08/20 03:50:09;;;;;;;10.25;1.85;;;17.90;99.90;;;;;;4952465;29;20044;-81
2022/08/20 03:52:56;;;;;;;7.47;1.35;;;17.90;99.90;;;;;;4952777;29;20062;-80
2022/08/20 03:55:46;;;;;;;7.05;1.17;;;17.90;99.90;;;;;;4953605;29;20551;-81
2022/08/20 03:58:33;;;;;;;8.75;1.45;;;17.90;99.90;;;;;;4952313;28;20538;-80
2022/08/20 04:01:19;;;;;;;9.77;1.50;;;17.80;99.90;;;;;;4939120;29;20047;-81
2022/08/20 04:04:05;;;;;;;6.43;1.40;;;17.80;99.90;;;;;;4952059;29;20531;-81
2022/08/20 04:06:52;;;;;;;11.07;1.60;;;17.80;99.90;;;;;;4953701;28;20503;-81
2022/08/20 04:09:38;;;;;;;5.05;1.30;;;17.70;99.90;;;;;;4951450;29;20236;-80
2022/08/20 04:12:25;;;;;;;7.20;1.73;;;17.60;99.90;;;;;;4951307;29;20055;-81
2022/08/20 04:15:14;;;;;;;10.38;1.27;;;17.60;99.90;;;;;;4952536;29;20086;-81
2022/08/20 04:18:05;;;;;;;5.63;1.40;;;17.50;99.90;;;;;;4952427;29;20054;-80
2022/08/20 04:20:52;;;;;;;8.20;1.38;;;17.50;99.90;;;;;;4951999;29;20418;-80
2022/08/20 04:23:39;;;;;;;7.65;1.55;;;17.50;99.90;;;;;;4951352;29;20202;-80
2022/08/20 04:26:25;;;;;;;7.97;1.35;;;17.50;99.90;;;;;;4951861;29;20055;-81
2022/08/20 04:29:11;;;;;;;5.38;1.40;;;17.50;99.90;;;;;;4952581;29;20089;-80
2022/08/20 04:31:59;;;;;;;7.35;1.10;;;17.40;99.90;;;;;;4938867;29;20047;-80
2022/08/20 04:34:45;;;;;;;7.82;1.38;;;17.40;99.90;;;;;;4951702;29;20058;-80
2022/08/20 04:37:32;;;;;;;8.35;1.45;;;17.40;99.90;;;;;;4951446;29;20143;-80
2022/08/20 04:43:34;;;;;;;6.07;1.27;;;17.40;99.90;;;;;;4953653;28;20043;-80
2022/08/20 04:46:24;;;;;;;7.28;1.30;;;17.40;99.90;;;;;;4952149;29;20050;-80
2022/08/20 04:49:11;;;;;;;7.47;1.42;;;17.40;99.90;;;;;;4949792;29;20395;-81
2022/08/20 04:51:58;;;;;;;7.50;1.27;;;17.40;99.90;;;;;;4950354;29;20059;-81
2022/08/20 04:54:46;;;;;;;8.25;1.38;;;17.30;99.90;;;;;;4952042;29;20472;-80
2022/08/20 04:57:35;;;;;;;8.93;1.58;;;17.30;99.90;;;;;;4951848;29;20065;-80
2022/08/20 05:00:21;;;;;;;6.28;1.33;;;17.40;99.90;;;;;;4951074;29;20059;-80
2022/08/20 05:03:07;;;;;;;9.18;1.50;;;17.30;99.90;;;;;;4952365;29;20055;-80
2022/08/20 05:05:55;;;;;;;7.72;1.15;;;17.30;99.90;;;;;;4952486;29;20134;-80
2022/08/20 05:08:41;;;;;;;13.55;1.60;;;17.30;99.90;;;;;;4953973;28;20491;-79
2022/08/20 05:11:28;;;;;;;13.15;1.88;;;17.30;99.90;;;;;;4952249;29;20050;-81
2022/08/20 05:14:14;;;;;;;11.48;1.90;;;17.30;99.90;;;;;;4951793;29;20051;-80
2022/08/20 05:17:05;;;;;;;7.22;1.45;;;17.30;99.90;;;;;;4952683;29;20055;-80
2022/08/20 05:19:51;;;;;;;6.50;1.77;;;17.20;99.90;;;;;;4951843;29;20051;-81
2022/08/20 05:22:38;;;;;;;8.23;1.60;;;17.30;99.90;;;;;;4952121;29;20047;-80
2022/08/20 05:25:28;;;;;;;9.75;1.48;;;17.30;99.90;;;;;;4951769;29;20043;-79
2022/08/20 05:28:31;;;;;;;14.02;2.15;;;17.30;99.90;;;;;;4951798;29;20523;-80
2022/08/20 05:31:17;;;;;;;6.60;1.50;;;17.30;99.90;;;;;;4950215;29;20051;-80
2022/08/20 05:34:09;;;;;;;7.25;1.35;;;17.30;99.90;;;;;;4951254;29;20086;-80
2022/08/20 05:36:55;;;;;;;10.75;2.28;;;17.30;99.90;;;;;;4951320;29;20047;-80
2022/08/20 05:39:42;;;;;;;7.00;1.90;;;17.30;99.90;;;;;;4951815;29;20040;-81
2022/08/20 05:42:29;;;;;;;5.22;1.08;;;17.30;99.90;;;;;;4950074;28;20063;-82
2022/08/20 05:45:16;;;;;;;7.22;1.55;;;17.40;99.90;;;;;;4950118;29;20114;-81
2022/08/20 05:48:05;;;;;;;5.90;1.45;;;17.40;99.90;;;;;;4950884;29;20058;-81
2022/08/20 05:50:53;;;;;;;4.90;1.08;;;17.50;99.90;;;;;;4949933;29;20098;-81
2022/08/20 05:53:40;;;;;;;6.15;1.52;;;17.70;99.90;;;;;;4951482;29;20054;-81
2022/08/20 05:56:29;;;;;;;9.45;1.52;;;17.70;99.90;;;;;;4951119;29;20301;-81
2022/08/20 05:59:15;;;;;;;6.10;1.05;;;17.90;99.90;;;;;;4952220;29;20412;-79
2022/08/20 06:04:23;;;;;;;6.38;1.33;;;18.00;99.90;;;;;;4952055;29;20503;-81
2022/08/20 06:05:08;;;;;;;8.65;1.42;;;18.00;99.90;;;;;;4951009;29;20491;-80
2022/08/20 06:07:54;;;;;;;9.43;1.50;;;18.20;99.90;;;;;;4951076;29;20055;-81
2022/08/20 06:10:42;;;;;;;10.75;1.40;;;18.30;99.90;;;;;;4951185;29;20563;-81
2022/08/20 06:13:29;;;;;;;6.80;1.95;;;18.50;99.90;;;;;;4953228;28;20053;-80
2022/08/20 06:16:15;;;;;;;8.13;1.27;;;18.60;99.90;;;;;;4952672;29;20130;-81
2022/08/20 06:19:01;;;;;;;6.75;1.63;;;18.80;99.90;;;;;;4951896;29;20078;-80
2022/08/20 06:21:48;;;;;;;6.65;1.20;;;19.00;99.90;;;;;;4951113;28;20035;-80
2022/08/20 06:24:34;;;;;;;6.72;2.00;;;19.10;99.90;;;;;;4954928;29;20134;-81
2022/08/20 06:27:21;;;;;;;7.43;1.25;;;19.30;99.90;;;;;;4954940;29;20055;-81
2022/08/20 06:30:10;;;;;;;5.78;1.20;;;19.40;99.90;;;;;;4953968;29;20051;-81
2022/08/20 06:32:57;;;;;;;4.30;1.08;;;19.60;99.90;;;;;;4954792;29;20078;-80
2022/08/20 06:35:43;;;;;;;11.32;1.70;;;19.70;99.90;;;;;;4954450;29;20126;-84
2022/08/20 06:38:31;;;;;;;6.97;1.58;;;19.90;99.90;;;;;;4954872;29;20054;-82
2022/08/20 06:41:17;;;;;;;9.35;1.58;;;20.00;99.90;;;;;;4954507;28;20484;-80
2022/08/20 06:44:06;;;;;;;6.00;1.08;;;20.10;99.90;;;;;;4955108;29;20089;-83
2022/08/20 06:46:53;;;;;;;9.50;1.55;;;20.20;99.90;;;;;;4954376;29;20047;-81
2022/08/20 06:49:40;;;;;;;9.48;1.30;;;20.40;99.90;;;;;;4953075;29;20058;-83
2022/08/20 06:52:26;;;;;;;10.07;1.88;;;20.50;99.90;;;;;;4953870;29;20058;-82
2022/08/20 06:55:16;;;;;;;6.38;1.25;;;20.60;99.90;;;;;;4954260;29;20415;-85
2022/08/20 06:58:05;;;;;;;7.70;1.33;;;20.70;99.70;;;;;;4955601;28;20098;-84
2022/08/20 07:00:51;;;;;;;8.77;1.95;;;20.70;99.60;;;;;;4954264;29;20159;-82
2022/08/20 07:03:39;;;;;;;8.68;1.40;;;20.80;99.90;;;;;;4939969;29;20059;-84
2022/08/20 07:06:26;;;;;;;7.03;1.48;;;20.90;99.60;;;;;;4954694;29;20179;-83
2022/08/20 07:09:12;;;;;;;6.07;1.58;;;21.00;99.80;;;;;;4954700;29;20086;-84
2022/08/20 07:11:59;;;;;;;6.25;1.50;;;21.10;99.70;;;;;;4955622;29;20047;-83
2022/08/20 07:14:46;;;;;;;8.60;2.13;;;21.20;99.40;;;;;;4957224;29;20110;-86
2022/08/20 07:17:33;;;;;;;7.53;1.33;;;21.30;99.20;;;;;;4955694;29;20092;-83
2022/08/20 07:20:22;;;;;;;4.88;1.38;;;21.30;99.40;;;;;;4955856;29;20048;-84
2022/08/20 07:23:12;;;;;;;10.45;1.90;;;21.10;99.00;;;;;;4957478;29;20062;-84
2022/08/20 07:25:58;;;;;;;11.30;1.77;;;21.20;98.70;;;;;;4956799;29;20055;-85
2022/08/20 07:28:45;;;;;;;6.60;1.52;;;21.20;98.80;;;;;;4953780;29;20058;-86
2022/08/20 07:34:37;;;;;;;8.05;1.65;;;21.30;99.40;;;;;;4956762;28;20055;-86
2022/08/20 07:37:23;;;;;;;6.20;1.42;;;21.40;99.30;;;;;;4954564;29;20055;-84
2022/08/20 07:40:14;;;;;;;6.78;1.48;;;21.50;98.90;;;;;;4953505;29;20062;-83
2022/08/20 07:43:01;;;;;;;9.07;2.00;;;21.60;98.60;;;;;;4954613;29;20055;-82
2022/08/20 07:45:54;;;;;;;7.35;1.33;;;21.70;98.40;;;;;;4954628;29;20051;-82
2022/08/20 07:48:45;;;;;;;10.07;2.22;;;22.00;98.40;;;;;;4955764;29;20079;-83
2022/08/20 07:51:31;;;;;;;8.90;2.10;;;22.20;98.60;;;;;;4940064;29;20052;-84
2022/08/20 07:54:18;;;;;;;14.80;2.25;;;22.30;98.20;;;;;;4953192;29;20047;-81
2022/08/20 07:57:04;;;;;;;9.65;2.00;;;22.50;97.70;;;;;;4927363;29;20070;-87
2022/08/20 07:59:59;;;;;;;9.18;1.48;;;22.40;97.00;;;;;;4959843;28;20054;-80
2022/08/20 08:02:45;;;;;;;8.52;1.45;;;22.40;96.90;;;;;;4961508;29;20047;-83
2022/08/20 08:05:34;;;;;;;8.40;1.65;;;22.40;97.30;;;;;;4946101;29;20051;-85
2022/08/20 08:08:24;;;;;;;7.25;1.55;;;22.50;97.70;;;;;;4954803;29;20051;-85
2022/08/20 08:11:11;;;;;;;9.82;1.83;;;22.40;97.30;;;;;;4953215;29;20574;-84
2022/08/20 08:13:58;;;;;;;6.53;1.50;;;22.50;97.20;;;;;;4953850;29;20058;-87
2022/08/20 08:16:45;;;;;;;7.03;1.35;;;22.70;97.00;;;;;;4954660;29;20182;-85
2022/08/20 08:19:37;;;;;;;11.50;2.45;;;22.80;97.00;;;;;;4953656;29;20138;-86
2022/08/20 08:22:24;;;;;;;9.90;2.00;;;22.90;97.00;;;;;;4954070;29;20073;-83
2022/08/20 08:25:16;;;;;;;8.80;1.45;;;23.10;96.90;;;;;;4953731;29;20047;-85
2022/08/20 08:28:02;;;;;;;6.78;1.60;;;23.10;96.10;;;;;;4954126;29;20066;-85
2022/08/20 08:30:49;;;;;;;8.85;2.20;;;23.20;96.70;;;;;;4952951;29;20075;-82
2022/08/20 08:33:35;;;;;;;10.02;1.95;;;23.10;96.10;;;;;;4952086;29;20137;-81
2022/08/20 08:36:23;;;;;;;10.35;1.75;;;23.30;96.00;;;;;;4953301;29;20138;-83
2022/08/20 08:39:09;;;;;;;8.10;1.95;;;23.40;95.90;;;;;;4953995;28;20051;-84
2022/08/20 08:42:25;;;;;;;11.88;1.75;;;23.70;96.30;;;;;;4954757;28;20427;-84
2022/08/20 08:45:17;;;;;;;6.35;1.80;;;23.80;95.60;;;;;;4954141;28;20602;-82
2022/08/20 08:48:04;;;;;;;8.43;1.45;;;24.00;95.70;;;;;;4953768;29;20464;-85
2022/08/20 08:50:52;;;;;;;10.82;1.48;;;24.30;95.30;;;;;;4951514;29;20506;-82
2022/08/20 08:53:53;;;;;;;10.65;1.95;;;24.50;94.90;;;;;;4954101;29;20047;-86
2022/08/20 08:56:42;;;;;;;8.07;2.00;;;24.50;94.20;;;;;;4950761;29;20625;-83
2022/08/20 08:59:30;;;;;;;10.05;2.08;;;24.70;94.60;;;;;;4951198;29;20529;-83
2022/08/20 09:02:21;;;;;;;14.32;1.98;;;25.00;94.40;;;;;;4951764;29;20051;-84
2022/08/20 09:05:16;;;;;;;10.43;2.15;;;24.90;93.60;;;;;;4951077;29;20093;-81
2022/08/20 09:08:05;;;;;;;9.90;2.35;;;24.90;93.60;;;;;;4951364;29;20602;-81
2022/08/20 09:10:52;;;;;;;10.13;1.83;;;24.90;93.40;;;;;;4952650;29;20403;-84
2022/08/20 09:13:41;;;;;;;9.45;1.55;;;25.00;93.40;;;;;;4939108;29;20141;-84
2022/08/20 09:16:28;;;;;;;9.70;1.95;;;25.20;93.80;;;;;;4953526;28;20487;-82
2022/08/20 09:19:14;;;;;;;11.77;2.15;;;25.50;93.60;;;;;;4952514;29;20412;-83
2022/08/20 09:22:10;;;;;;;11.63;2.50;;;25.50;93.70;;;;;;4952592;29;20039;-83
2022/08/20 09:24:57;;;;;;;11.18;1.95;;;25.00;93.40;;;;;;4952049;29;20228;-79
2022/08/20 09:27:44;;;;;;;11.18;2.22;;;25.10;93.80;;;;;;4952730;29;20043;-82
2022/08/20 09:30:30;;;;;;;9.25;1.30;;;24.90;93.60;;;;;;4951932;29;20122;-79
2022/08/20 09:33:16;;;;;;;7.50;1.70;;;25.20;93.00;;;;;;4951385;29;20047;-85
2022/08/20 09:36:03;;;;;;;11.88;1.70;;;25.20;91.80;;;;;;4953566;29;20048;-79
2022/08/20 09:38:49;;;;;;;8.50;2.05;;;25.10;91.30;;;;;;4953064;29;20102;-82
2022/08/20 09:41:35;;;;;;;5.90;1.38;;;24.90;91.30;;;;;;4952432;28;20052;-84
2022/08/20 09:44:22;;;;;;;8.32;1.85;;;25.20;91.20;;;;;;4954704;29;20083;-83
2022/08/20 09:47:09;;;;;;;6.10;1.40;;;25.00;91.30;;;;;;4951588;29;20083;-82
2022/08/20 09:49:55;;;;;;;7.00;1.38;;;24.70;91.40;;;;;;4952163;29;20141;-84
2022/08/20 09:52:45;;;;;;;5.50;1.30;;;25.00;91.90;;;;;;4951673;29;20048;-80
2022/08/20 09:55:35;;;;;;;7.22;1.33;;;25.30;90.90;;;;;;4952465;28;20471;-81
2022/08/20 09:58:39;;;;;;;7.32;1.15;;;25.50;90.60;;;;;;4955166;29;20062;-84
2022/08/20 10:01:25;;;;;;;8.00;1.50;;;25.70;90.00;;;;;;4955008;29;20139;-81
2022/08/20 10:04:11;;;;;;;4.38;1.42;;;26.10;87.30;;;;;;4941349;29;20087;-83
2022/08/20 10:06:58;;;;;;;5.93;1.63;;;26.20;87.40;;;;;;4954941;29;20142;-82
2022/08/20 10:09:44;;;;;;;5.80;1.33;;;26.30;85.70;;;;;;4955400;29;20567;-84
2022/08/20 10:12:30;;;;;;;6.78;2.35;;;26.60;84.80;;;;;;4967117;28;20050;-85
2022/08/20 10:15:17;;;;;;;5.95;1.13;;;26.90;86.20;;;;;;4953504;28;20054;-80
2022/08/20 10:18:06;;;;;;;14.05;1.92;;;26.80;85.60;;;;;;4963792;28;20043;-84
2022/08/20 10:20:52;;;;;;;7.88;1.75;;;26.50;85.70;;;;;;4965439;28;20412;-82
2022/08/20 10:23:38;;;;;;;11.55;2.17;;;26.30;87.00;;;;;;4965823;28;20046;-82
2022/08/20 10:26:25;;;;;;;9.85;1.75;;;26.40;88.30;;;;;;4965289;28;20051;-82
2022/08/20 10:29:12;;;;;;;7.13;1.60;;;26.00;87.10;;;;;;4968366;28;20047;-83
2022/08/20 10:32:08;;;;;;;8.02;1.70;;;25.80;88.30;;;;;;4970448;28;20055;-82
2022/08/20 10:34:55;;;;;;;8.75;1.83;;;26.20;88.20;;;;;;4966118;28;20047;-85
2022/08/20 10:37:41;;;;;;;10.93;1.88;;;26.10;86.60;;;;;;4969638;28;20046;-86
2022/08/20 10:40:27;;;;;;;8.73;1.98;;;26.10;87.20;;;;;;4965697;28;20062;-82
2022/08/20 10:43:13;;;;;;;5.20;1.20;;;26.10;87.10;;;;;;4983659;28;20059;-83
2022/08/20 10:46:00;;;;;;;7.95;1.83;;;25.90;86.80;;;;;;4964336;28;20043;-83
2022/08/20 10:48:46;;;;;;;9.45;2.20;;;26.40;87.60;;;;;;4964608;28;20124;-85
2022/08/20 10:51:32;;;;;;;6.97;1.48;;;26.70;87.90;;;;;;4965854;28;20058;-83
2022/08/20 10:54:19;;;;;;;7.60;2.28;;;27.00;88.30;;;;;;4965553;28;20048;-83
2022/08/20 10:57:05;;;;;;;7.18;1.80;;;26.80;85.60;;;;;;4961856;28;20062;-83
2022/08/20 10:59:53;;;;;;;8.80;2.40;;;26.50;86.00;;;;;;4955990;29;20043;-82
2022/08/20 11:02:40;;;;;;;6.80;2.03;;;26.60;85.50;;;;;;4955087;29;20047;-80
2022/08/20 11:05:26;;;;;;;10.02;3.42;;;26.80;87.10;;;;;;4956622;28;20090;-83
2022/08/20 11:08:12;;;;;;;13.90;4.88;;;27.20;86.30;;;;;;4960490;28;20057;-83
2022/08/20 11:10:58;;;;;;;11.35;2.13;;;26.90;85.80;;;;;;4967979;28;20051;-83
2022/08/20 11:13:45;;;;;;;7.07;2.00;;;26.60;84.80;;;;;;4955411;28;20051;-82
2022/08/20 11:16:31;;;;;;;8.85;1.77;;;27.10;85.90;;;;;;4966468;28;20055;-84
2022/08/20 11:19:18;;;;;;;9.30;2.20;;;26.70;84.30;;;;;;4954513;28;20095;-84
2022/08/20 11:22:04;;;;;;;8.85;1.90;;;26.50;84.50;;;;;;4955151;28;20099;-86
2022/08/20 11:24:50;;;;;;;8.30;2.80;;;26.30;84.40;;;;;;4954062;29;20424;-85
2022/08/20 11:27:45;;;;;;;6.55;1.73;;;25.80;85.20;;;;;;4954234;28;20047;-85
2022/08/20 11:30:34;;;;;;;7.70;1.90;;;25.80;85.30;;;;;;4968918;28;20062;-85
2022/08/20 11:33:20;;;;;;;10.27;2.38;;;25.70;87.00;;;;;;4958093;28;20051;-85
2022/08/20 11:36:07;;;;;;;11.20;2.17;;;25.50;86.80;;;;;;4955232;28;20055;-83
2022/08/20 11:38:53;;;;;;;11.43;3.38;;;25.50;86.90;;;;;;4954910;28;20112;-84
2022/08/20 11:41:39;;;;;;;9.27;2.88;;;25.40;87.40;;;;;;4938990;29;20051;-84
2022/08/20 11:44:26;;;;;;;9.77;3.17;;;25.40;87.90;;;;;;4954311;29;20070;-84
2022/08/20 11:47:27;;;;;;;8.57;2.33;;;25.40;87.40;;;;;;4953359;29;20059;-84
2022/08/20 11:50:18;;;;;;;10.05;2.38;;;25.60;90.20;;;;;;4953769;29;20403;-84
2022/08/20 11:53:05;;;;;;;8.52;1.70;;;25.70;88.80;;;;;;4955568;28;20082;-84
2022/08/20 11:55:51;;;;;;;6.70;1.40;;;25.90;89.30;;;;;;4956891;28;20125;-84
2022/08/20 11:58:37;;;;;;;11.82;2.92;;;26.00;89.50;;;;;;4953312;29;20093;-84
2022/08/20 12:01:24;;;;;;;10.85;1.88;;;26.00;89.00;;;;;;4954584;28;20051;-84
2022/08/20 12:04:10;;;;;;;9.77;3.47;;;26.20;89.20;;;;;;4952804;29;20058;-83
2022/08/20 12:06:56;;;;;;;10.13;2.55;;;26.90;88.80;;;;;;4952787;29;20047;-84
2022/08/20 12:09:44;;;;;;;8.13;1.95;;;27.00;87.50;;;;;;4953827;28;20195;-84
2022/08/20 12:12:30;;;;;;;10.43;2.08;;;26.90;88.10;;;;;;4965993;28;20086;-83
2022/08/20 12:15:16;;;;;;;11.98;2.67;;;26.40;87.40;;;;;;4954073;28;20684;-84
2022/08/20 12:18:12;;;;;;;11.95;2.75;;;26.20;89.20;;;;;;4954264;28;20047;-83
2022/08/20 12:21:00;;;;;;;7.55;2.00;;;26.20;89.30;;;;;;4954134;29;20047;-80
2022/08/20 12:23:46;;;;;;;12.55;2.17;;;26.10;88.80;;;;;;4954806;29;20086;-80
2022/08/20 12:26:32;;;;;;;7.50;2.00;;;25.80;86.90;;;;;;4954148;28;20953;-81
2022/08/20 12:29:18;;;;;;;10.93;2.33;;;25.80;85.90;;;;;;4953748;28;20499;-78
2022/08/20 12:32:06;;;;;;;7.63;1.90;;;25.90;86.10;;;;;;4953281;29;20051;-78
2022/08/20 12:34:54;;;;;;;6.97;1.63;;;26.40;86.60;;;;;;4955097;28;20051;-81
2022/08/20 12:37:41;;;;;;;8.98;2.08;;;26.10;84.00;;;;;;4954686;29;20066;-77
2022/08/20 12:40:28;;;;;;;10.00;2.45;;;26.00;85.40;;;;;;4957279;29;20051;-76
2022/08/20 12:43:14;;;;;;;9.65;1.95;;;26.20;86.20;;;;;;4962725;28;20055;-78
2022/08/20 12:46:00;;;;;;;9.30;2.05;;;26.20;85.90;;;;;;4958250;28;20047;-80
2022/08/20 12:48:46;;;;;;;7.30;1.55;;;26.40;86.90;;;;;;4955377;29;20054;-82
2022/08/20 12:51:33;;;;;;;9.13;2.08;;;26.30;88.00;;;;;;4958213;28;20106;-78
2022/08/20 12:54:19;;;;;;;10.77;2.60;;;26.40;89.40;;;;;;4955814;28;20781;-81
2022/08/20 12:57:05;;;;;;;12.77;1.90;;;26.30;88.30;;;;;;4952282;29;20058;-76
2022/08/20 12:59:52;;;;;;;10.57;2.13;;;26.40;88.50;;;;;;4968015;28;20448;-77
2022/08/20 13:02:40;;;;;;;14.10;2.20;;;26.30;89.10;;;;;;4953123;28;20079;-76
2022/08/20 13:05:26;;;;;;;8.30;1.80;;;26.20;89.80;;;;;;4951607;29;20102;-75
2022/08/20 13:08:12;;;;;;;9.88;2.47;;;26.10;88.60;;;;;;4964965;28;20059;-76
2022/08/20 13:10:59;;;;;;;11.50;2.20;;;26.50;88.30;;;;;;4964985;28;20051;-82
2022/08/20 13:13:48;;;;;;;7.78;1.98;;;27.50;86.30;;;;;;4953873;28;20674;-81
2022/08/20 13:16:37;;;;;;;8.85;2.40;;;27.70;82.10;;;;;;4953964;28;20047;-81
2022/08/20 13:19:24;;;;;;;7.95;1.73;;;27.70;83.70;;;;;;4952790;29;20054;-79
2022/08/20 13:22:12;;;;;;;10.20;2.00;;;28.60;82.10;;;;;;4952410;29;20139;-81
2022/08/20 13:24:58;;;;;;;8.10;2.10;;;28.00;81.00;;;;;;4955363;28;20129;-77
2022/08/20 13:27:44;;;;;;;7.68;1.60;;;27.60;81.90;;;;;;4955888;29;20130;-85
2022/08/20 13:30:34;;;;;;;9.25;1.60;;;27.60;82.40;;;;;;4968059;28;20105;-77
2022/08/20 13:33:20;;;;;;;8.15;1.65;;;28.30;82.80;;;;;;4958509;29;20134;-83
2022/08/20 13:36:06;;;;;;;10.63;2.10;;;29.00;79.30;;;;;;4957362;28;20174;-84
2022/08/20 13:38:53;;;;;;;6.15;1.65;;;28.70;80.10;;;;;;4957226;28;20133;-79
2022/08/20 13:41:40;;;;;;;8.07;1.70;;;29.70;79.20;;;;;;4956370;28;20070;-77
2022/08/20 13:44:26;;;;;;;13.23;1.75;;;30.60;78.00;;;;;;4956980;28;20051;-86
2022/08/20 13:47:15;;;;;;;5.72;1.65;;;30.80;75.30;;;;;;4958564;28;20081;-79
2022/08/20 13:50:09;;;;;;;5.55;1.40;;;30.80;75.90;;;;;;4958099;28;20047;-79
2022/08/20 13:52:55;;;;;;;8.32;1.42;;;31.00;74.90;;;;;;4970285;28;20046;-80
2022/08/20 13:55:41;;;;;;;9.13;2.08;;;32.40;72.50;;;;;;4957729;28;20105;-82
2022/08/20 13:58:28;;;;;;;12.02;2.65;;;31.80;69.80;;;;;;4976391;28;20062;-84
2022/08/20 14:01:14;;;;;;;7.38;1.75;;;31.50;70.60;;;;;;4980144;28;20054;-84
2022/08/20 14:04:01;;;;;;;7.35;1.42;;;32.40;69.80;;;;;;4984651;28;20047;-83
2022/08/20 14:06:47;;;;;;;8.50;1.63;;;32.30;66.50;;;;;;4990450;28;20555;-82
2022/08/20 14:09:39;;;;;;;6.20;1.70;;;31.10;65.80;;;;;;4978154;28;20043;-88
2022/08/20 14:12:26;;;;;;;9.73;2.25;;;30.00;67.70;;;;;;4977240;28;20051;-87
2022/08/20 14:15:12;;;;;;;10.48;2.20;;;29.00;69.40;;;;;;4975613;28;20061;-81
2022/08/20 14:17:59;;;;;;;6.22;1.95;;;28.40;71.10;;;;;;4979548;28;20058;-82
2022/08/20 14:20:45;;;;;;;7.90;1.50;;;27.70;73.50;;;;;;4978232;28;20051;-81
2022/08/20 14:23:32;;;;;;;13.50;1.98;;;27.20;75.70;;;;;;4976985;28;20126;-85
2022/08/20 14:26:18;;;;;;;7.90;2.05;;;26.70;77.60;;;;;;4976506;28;20070;-84
2022/08/20 14:29:08;;;;;;;8.82;2.03;;;26.40;79.00;;;;;;4976555;28;20065;-85
2022/08/20 14:31:54;;;;;;;8.43;2.33;;;26.40;83.00;;;;;;4975692;28;20055;-82
2022/08/20 14:34:41;;;;;;;8.30;2.00;;;28.00;83.30;;;;;;4976166;28;20042;-84
2022/08/20 14:37:31;;;;;;;8.60;2.08;;;29.50;79.90;;;;;;4973932;28;20759;-80